sensor_id;sensor_type;location;lat;lon;timestamp;P1;durP1;ratioP1;P2;durP2;ratioP2
13951;SDS011;39535;52.192;9.886;2023-11-18T00:00:21;22.53;;;19.90;;
13951;SDS011;39535;52.192;9.886;2023-11-18T00:02:50;24.73;;;21.97;;
13951;SDS011;39535;52.192;9.886;2023-11-18T00:05:16;25.40;;;22.67;;
13951;SDS011;39535;52.192;9.886;2023-11-18T00:07:43;25.83;;;23.27;;
13951;SDS011;39535;52.192;9.886;2023-11-18T00:10:10;27.67;;;24.60;;
13951;SDS011;39535;52.192;9.886;2023-11-18T00:12:37;26.77;;;24.03;;
13951;SDS011;39535;52.192;9.886;2023-11-18T00:15:06;29.67;;;24.40;;
13951;SDS011;39535;52.192;9.886;2023-11-18T00:17:36;28.37;;;24.20;;
13951;SDS011;39535;52.192;9.886;2023-11-18T00:20:04;27.17;;;23.27;;
13951;SDS011;39535;52.192;9.886;2023-11-18T00:22:34;25.70;;;22.17;;
13951;SDS011;39535;52.192;9.886;2023-11-18T00:25:00;24.40;;;22.03;;
13951;SDS011;39535;52.192;9.886;2023-11-18T00:27:30;24.63;;;22.17;;
13951;SDS011;39535;52.192;9.886;2023-11-18T00:29:56;23.20;;;20.90;;
13951;SDS011;39535;52.192;9.886;2023-11-18T00:32:22;23.13;;;20.97;;
13951;SDS011;39535;52.192;9.886;2023-11-18T00:34:49;22.47;;;20.20;;
13951;SDS011;39535;52.192;9.886;2023-11-18T00:37:17;22.07;;;20.17;;
13951;SDS011;39535;52.192;9.886;2023-11-18T00:39:43;24.30;;;20.23;;
13951;SDS011;39535;52.192;9.886;2023-11-18T00:42:09;22.03;;;19.83;;
13951;SDS011;39535;52.192;9.886;2023-11-18T00:44:36;26.63;;;21.17;;
13951;SDS011;39535;52.192;9.886;2023-11-18T00:47:02;21.33;;;19.30;;
13951;SDS011;39535;52.192;9.886;2023-11-18T00:49:29;22.53;;;20.30;;
13951;SDS011;39535;52.192;9.886;2023-11-18T00:51:56;21.03;;;19.03;;
13951;SDS011;39535;52.192;9.886;2023-11-18T00:54:23;21.40;;;19.53;;
13951;SDS011;39535;52.192;9.886;2023-11-18T00:56:50;20.83;;;18.83;;
13951;SDS011;39535;52.192;9.886;2023-11-18T00:59:16;19.07;;;17.47;;
13951;SDS011;39535;52.192;9.886;2023-11-18T01:01:43;20.27;;;18.20;;
13951;SDS011;39535;52.192;9.886;2023-11-18T01:04:09;19.73;;;17.73;;
13951;SDS011;39535;52.192;9.886;2023-11-18T01:06:36;19.50;;;17.90;;
13951;SDS011;39535;52.192;9.886;2023-11-18T01:09:02;20.00;;;17.87;;
13951;SDS011;39535;52.192;9.886;2023-11-18T01:11:33;22.63;;;20.40;;
13951;SDS011;39535;52.192;9.886;2023-11-18T01:14:00;20.30;;;18.40;;
13951;SDS011;39535;52.192;9.886;2023-11-18T01:16:27;20.57;;;18.67;;
13951;SDS011;39535;52.192;9.886;2023-11-18T01:18:54;22.13;;;20.03;;
13951;SDS011;39535;52.192;9.886;2023-11-18T01:21:20;22.67;;;20.37;;
13951;SDS011;39535;52.192;9.886;2023-11-18T01:23:48;24.00;;;21.23;;
13951;SDS011;39535;52.192;9.886;2023-11-18T01:26:14;20.70;;;18.57;;
13951;SDS011;39535;52.192;9.886;2023-11-18T01:28:42;24.40;;;18.67;;
13951;SDS011;39535;52.192;9.886;2023-11-18T01:31:10;27.00;;;22.80;;
13951;SDS011;39535;52.192;9.886;2023-11-18T01:33:36;25.50;;;22.90;;
13951;SDS011;39535;52.192;9.886;2023-11-18T01:36:05;22.23;;;20.33;;
13951;SDS011;39535;52.192;9.886;2023-11-18T01:38:34;21.83;;;19.87;;
13951;SDS011;39535;52.192;9.886;2023-11-18T01:41:00;22.53;;;20.57;;
13951;SDS011;39535;52.192;9.886;2023-11-18T01:43:28;20.77;;;18.77;;
13951;SDS011;39535;52.192;9.886;2023-11-18T01:45:58;24.57;;;19.30;;
13951;SDS011;39535;52.192;9.886;2023-11-18T01:48:27;20.33;;;18.67;;
13951;SDS011;39535;52.192;9.886;2023-11-18T01:50:54;22.27;;;20.27;;
13951;SDS011;39535;52.192;9.886;2023-11-18T01:53:22;21.00;;;19.00;;
13951;SDS011;39535;52.192;9.886;2023-11-18T01:55:51;23.80;;;21.37;;
13951;SDS011;39535;52.192;9.886;2023-11-18T01:58:17;24.60;;;22.27;;
13951;SDS011;39535;52.192;9.886;2023-11-18T02:00:45;24.67;;;22.37;;
13951;SDS011;39535;52.192;9.886;2023-11-18T02:03:14;24.07;;;21.83;;
13951;SDS011;39535;52.192;9.886;2023-11-18T02:05:41;23.83;;;21.73;;
13951;SDS011;39535;52.192;9.886;2023-11-18T02:08:09;24.60;;;22.10;;
13951;SDS011;39535;52.192;9.886;2023-11-18T02:10:40;25.80;;;23.10;;
13951;SDS011;39535;52.192;9.886;2023-11-18T02:13:21;24.57;;;22.17;;
13951;SDS011;39535;52.192;9.886;2023-11-18T02:15:52;24.83;;;22.33;;
13951;SDS011;39535;52.192;9.886;2023-11-18T02:18:23;23.70;;;21.50;;
13951;SDS011;39535;52.192;9.886;2023-11-18T02:20:50;23.50;;;21.37;;
13951;SDS011;39535;52.192;9.886;2023-11-18T02:23:18;24.67;;;22.17;;
13951;SDS011;39535;52.192;9.886;2023-11-18T02:25:48;25.50;;;22.90;;
13951;SDS011;39535;52.192;9.886;2023-11-18T02:28:14;25.23;;;22.47;;
13951;SDS011;39535;52.192;9.886;2023-11-18T02:30:41;27.13;;;21.27;;
13951;SDS011;39535;52.192;9.886;2023-11-18T02:33:11;26.03;;;21.70;;
13951;SDS011;39535;52.192;9.886;2023-11-18T02:35:45;25.53;;;22.97;;
13951;SDS011;39535;52.192;9.886;2023-11-18T02:38:15;27.17;;;22.67;;
13951;SDS011;39535;52.192;9.886;2023-11-18T02:40:45;25.37;;;22.67;;
13951;SDS011;39535;52.192;9.886;2023-11-18T02:43:14;28.27;;;23.67;;
13951;SDS011;39535;52.192;9.886;2023-11-18T02:45:42;30.83;;;22.83;;
13951;SDS011;39535;52.192;9.886;2023-11-18T02:48:11;28.40;;;22.90;;
13951;SDS011;39535;52.192;9.886;2023-11-18T02:50:39;25.27;;;22.43;;
13951;SDS011;39535;52.192;9.886;2023-11-18T02:53:07;25.27;;;22.50;;
13951;SDS011;39535;52.192;9.886;2023-11-18T02:55:35;32.73;;;23.27;;
13951;SDS011;39535;52.192;9.886;2023-11-18T02:58:01;28.73;;;23.37;;
13951;SDS011;39535;52.192;9.886;2023-11-18T03:00:29;23.93;;;21.40;;
13951;SDS011;39535;52.192;9.886;2023-11-18T03:02:56;24.90;;;22.30;;
13951;SDS011;39535;52.192;9.886;2023-11-18T03:05:22;25.53;;;22.67;;
13951;SDS011;39535;52.192;9.886;2023-11-18T03:07:49;26.43;;;22.20;;
13951;SDS011;39535;52.192;9.886;2023-11-18T03:10:18;27.47;;;22.40;;
13951;SDS011;39535;52.192;9.886;2023-11-18T03:12:46;24.47;;;21.87;;
13951;SDS011;39535;52.192;9.886;2023-11-18T03:15:13;27.57;;;23.10;;
13951;SDS011;39535;52.192;9.886;2023-11-18T03:17:43;25.13;;;22.43;;
13951;SDS011;39535;52.192;9.886;2023-11-18T03:20:10;29.10;;;22.07;;
13951;SDS011;39535;52.192;9.886;2023-11-18T03:22:39;26.37;;;22.17;;
13951;SDS011;39535;52.192;9.886;2023-11-18T03:25:06;24.27;;;21.77;;
13951;SDS011;39535;52.192;9.886;2023-11-18T03:27:33;31.00;;;22.23;;
13951;SDS011;39535;52.192;9.886;2023-11-18T03:30:00;23.00;;;20.37;;
13951;SDS011;39535;52.192;9.886;2023-11-18T03:32:26;26.37;;;23.10;;
13951;SDS011;39535;52.192;9.886;2023-11-18T03:34:54;24.63;;;21.60;;
13951;SDS011;39535;52.192;9.886;2023-11-18T03:37:22;25.43;;;22.10;;
13951;SDS011;39535;52.192;9.886;2023-11-18T03:39:49;27.10;;;21.83;;
13951;SDS011;39535;52.192;9.886;2023-11-18T03:42:15;28.30;;;23.30;;
13951;SDS011;39535;52.192;9.886;2023-11-18T03:44:41;25.67;;;20.67;;
13951;SDS011;39535;52.192;9.886;2023-11-18T03:47:09;25.57;;;22.90;;
13951;SDS011;39535;52.192;9.886;2023-11-18T03:49:35;31.30;;;22.93;;
13951;SDS011;39535;52.192;9.886;2023-11-18T03:52:03;30.97;;;22.37;;
13951;SDS011;39535;52.192;9.886;2023-11-18T03:54:30;26.53;;;22.37;;
13951;SDS011;39535;52.192;9.886;2023-11-18T03:56:57;27.77;;;23.77;;
13951;SDS011;39535;52.192;9.886;2023-11-18T03:59:24;28.23;;;22.37;;
13951;SDS011;39535;52.192;9.886;2023-11-18T04:01:50;25.77;;;22.63;;
13951;SDS011;39535;52.192;9.886;2023-11-18T04:04:18;30.97;;;23.47;;
13951;SDS011;39535;52.192;9.886;2023-11-18T04:06:44;28.13;;;22.33;;
13951;SDS011;39535;52.192;9.886;2023-11-18T04:09:13;28.77;;;22.93;;
13951;SDS011;39535;52.192;9.886;2023-11-18T04:11:39;27.00;;;22.00;;
13951;SDS011;39535;52.192;9.886;2023-11-18T04:14:09;38.40;;;24.17;;
13951;SDS011;39535;52.192;9.886;2023-11-18T04:16:36;33.33;;;23.27;;
13951;SDS011;39535;52.192;9.886;2023-11-18T04:19:03;32.27;;;23.33;;
13951;SDS011;39535;52.192;9.886;2023-11-18T04:21:31;28.03;;;21.10;;
13951;SDS011;39535;52.192;9.886;2023-11-18T04:23:57;38.70;;;23.67;;
13951;SDS011;39535;52.192;9.886;2023-11-18T04:26:25;27.93;;;22.53;;
13951;SDS011;39535;52.192;9.886;2023-11-18T04:28:51;28.50;;;22.37;;
13951;SDS011;39535;52.192;9.886;2023-11-18T04:31:18;31.70;;;22.90;;
13951;SDS011;39535;52.192;9.886;2023-11-18T04:33:44;29.17;;;22.10;;
13951;SDS011;39535;52.192;9.886;2023-11-18T04:36:10;37.70;;;23.57;;
13951;SDS011;39535;52.192;9.886;2023-11-18T04:38:38;30.70;;;23.07;;
13951;SDS011;39535;52.192;9.886;2023-11-18T04:41:05;31.63;;;22.67;;
13951;SDS011;39535;52.192;9.886;2023-11-18T04:43:33;35.10;;;23.47;;
13951;SDS011;39535;52.192;9.886;2023-11-18T04:45:59;31.83;;;23.00;;
13951;SDS011;39535;52.192;9.886;2023-11-18T04:48:26;29.27;;;22.40;;
13951;SDS011;39535;52.192;9.886;2023-11-18T04:50:52;31.60;;;24.23;;
13951;SDS011;39535;52.192;9.886;2023-11-18T04:53:19;33.03;;;24.40;;
13951;SDS011;39535;52.192;9.886;2023-11-18T04:55:45;36.17;;;23.97;;
13951;SDS011;39535;52.192;9.886;2023-11-18T04:58:12;39.57;;;22.93;;
13951;SDS011;39535;52.192;9.886;2023-11-18T05:00:40;35.53;;;23.60;;
13951;SDS011;39535;52.192;9.886;2023-11-18T05:03:07;34.07;;;22.77;;
13951;SDS011;39535;52.192;9.886;2023-11-18T05:05:35;40.53;;;23.57;;
13951;SDS011;39535;52.192;9.886;2023-11-18T05:08:02;40.40;;;24.80;;
13951;SDS011;39535;52.192;9.886;2023-11-18T05:10:31;39.50;;;24.83;;
13951;SDS011;39535;52.192;9.886;2023-11-18T05:12:57;35.93;;;23.40;;
13951;SDS011;39535;52.192;9.886;2023-11-18T05:15:24;31.53;;;22.43;;
13951;SDS011;39535;52.192;9.886;2023-11-18T05:17:52;33.60;;;22.73;;
13951;SDS011;39535;52.192;9.886;2023-11-18T05:20:19;36.40;;;23.23;;
13951;SDS011;39535;52.192;9.886;2023-11-18T05:22:46;38.30;;;24.03;;
13951;SDS011;39535;52.192;9.886;2023-11-18T05:25:12;33.43;;;23.67;;
13951;SDS011;39535;52.192;9.886;2023-11-18T05:27:39;35.43;;;23.20;;
13951;SDS011;39535;52.192;9.886;2023-11-18T05:30:06;42.03;;;23.83;;
13951;SDS011;39535;52.192;9.886;2023-11-18T05:32:34;36.77;;;23.17;;
13951;SDS011;39535;52.192;9.886;2023-11-18T05:35:02;38.57;;;23.83;;
13951;SDS011;39535;52.192;9.886;2023-11-18T05:37:30;32.93;;;23.00;;
13951;SDS011;39535;52.192;9.886;2023-11-18T05:40:00;35.30;;;22.13;;
13951;SDS011;39535;52.192;9.886;2023-11-18T05:42:31;32.60;;;22.67;;
13951;SDS011;39535;52.192;9.886;2023-11-18T05:44:58;33.93;;;21.80;;
13951;SDS011;39535;52.192;9.886;2023-11-18T05:47:24;35.43;;;22.37;;
13951;SDS011;39535;52.192;9.886;2023-11-18T05:49:51;40.50;;;24.13;;
13951;SDS011;39535;52.192;9.886;2023-11-18T05:52:19;41.90;;;23.43;;
13951;SDS011;39535;52.192;9.886;2023-11-18T05:54:47;38.93;;;23.83;;
13951;SDS011;39535;52.192;9.886;2023-11-18T05:57:14;35.17;;;24.07;;
13951;SDS011;39535;52.192;9.886;2023-11-18T05:59:41;39.80;;;23.97;;
13951;SDS011;39535;52.192;9.886;2023-11-18T06:02:07;42.57;;;24.60;;
13951;SDS011;39535;52.192;9.886;2023-11-18T06:04:38;44.73;;;23.70;;
13951;SDS011;39535;52.192;9.886;2023-11-18T06:07:04;40.77;;;24.80;;
13951;SDS011;39535;52.192;9.886;2023-11-18T06:09:32;42.20;;;25.10;;
13951;SDS011;39535;52.192;9.886;2023-11-18T06:11:59;40.03;;;23.63;;
13951;SDS011;39535;52.192;9.886;2023-11-18T06:14:25;37.83;;;22.87;;
13951;SDS011;39535;52.192;9.886;2023-11-18T06:16:52;33.80;;;22.77;;
13951;SDS011;39535;52.192;9.886;2023-11-18T06:19:19;39.77;;;23.13;;
13951;SDS011;39535;52.192;9.886;2023-11-18T06:21:46;35.97;;;22.57;;
13951;SDS011;39535;52.192;9.886;2023-11-18T06:24:12;42.90;;;23.43;;
13951;SDS011;39535;52.192;9.886;2023-11-18T06:26:41;37.83;;;22.00;;
13951;SDS011;39535;52.192;9.886;2023-11-18T06:29:07;32.67;;;22.90;;
13951;SDS011;39535;52.192;9.886;2023-11-18T06:31:34;35.63;;;22.83;;
13951;SDS011;39535;52.192;9.886;2023-11-18T06:34:00;41.23;;;23.17;;
13951;SDS011;39535;52.192;9.886;2023-11-18T06:36:28;43.67;;;22.97;;
13951;SDS011;39535;52.192;9.886;2023-11-18T06:38:56;39.33;;;23.73;;
13951;SDS011;39535;52.192;9.886;2023-11-18T06:41:24;37.90;;;21.23;;
13951;SDS011;39535;52.192;9.886;2023-11-18T06:43:52;45.50;;;22.87;;
13951;SDS011;39535;52.192;9.886;2023-11-18T06:46:22;38.57;;;21.90;;
13951;SDS011;39535;52.192;9.886;2023-11-18T06:48:49;37.30;;;21.37;;
13951;SDS011;39535;52.192;9.886;2023-11-18T06:51:19;35.87;;;21.53;;
13951;SDS011;39535;52.192;9.886;2023-11-18T06:53:48;37.03;;;21.43;;
13951;SDS011;39535;52.192;9.886;2023-11-18T06:56:15;30.70;;;20.80;;
13951;SDS011;39535;52.192;9.886;2023-11-18T06:58:41;37.07;;;21.27;;
13951;SDS011;39535;52.192;9.886;2023-11-18T07:01:11;33.73;;;20.47;;
13951;SDS011;39535;52.192;9.886;2023-11-18T07:03:39;32.03;;;20.47;;
13951;SDS011;39535;52.192;9.886;2023-11-18T07:06:07;36.37;;;22.67;;
13951;SDS011;39535;52.192;9.886;2023-11-18T07:08:34;30.97;;;19.90;;
13951;SDS011;39535;52.192;9.886;2023-11-18T07:11:01;29.10;;;20.03;;
13951;SDS011;39535;52.192;9.886;2023-11-18T07:13:27;30.87;;;20.47;;
13951;SDS011;39535;52.192;9.886;2023-11-18T07:15:54;34.13;;;21.43;;
13951;SDS011;39535;52.192;9.886;2023-11-18T07:18:23;28.17;;;19.80;;
13951;SDS011;39535;52.192;9.886;2023-11-18T07:20:51;32.87;;;21.43;;
13951;SDS011;39535;52.192;9.886;2023-11-18T07:23:19;44.90;;;21.40;;
13951;SDS011;39535;52.192;9.886;2023-11-18T07:25:45;32.10;;;21.33;;
13951;SDS011;39535;52.192;9.886;2023-11-18T07:28:12;34.57;;;21.43;;
13951;SDS011;39535;52.192;9.886;2023-11-18T07:30:40;34.73;;;22.43;;
13951;SDS011;39535;52.192;9.886;2023-11-18T07:33:07;37.13;;;22.90;;
13951;SDS011;39535;52.192;9.886;2023-11-18T07:35:35;41.67;;;24.07;;
13951;SDS011;39535;52.192;9.886;2023-11-18T07:38:02;38.60;;;23.00;;
13951;SDS011;39535;52.192;9.886;2023-11-18T07:40:28;34.17;;;21.87;;
13951;SDS011;39535;52.192;9.886;2023-11-18T07:42:55;38.87;;;23.70;;
13951;SDS011;39535;52.192;9.886;2023-11-18T07:45:21;32.53;;;22.60;;
13951;SDS011;39535;52.192;9.886;2023-11-18T07:47:48;36.83;;;22.40;;
13951;SDS011;39535;52.192;9.886;2023-11-18T07:50:16;32.60;;;21.73;;
13951;SDS011;39535;52.192;9.886;2023-11-18T07:52:46;41.20;;;22.30;;
13951;SDS011;39535;52.192;9.886;2023-11-18T07:55:12;34.77;;;22.87;;
13951;SDS011;39535;52.192;9.886;2023-11-18T07:57:39;39.03;;;22.47;;
13951;SDS011;39535;52.192;9.886;2023-11-18T08:00:06;36.80;;;22.63;;
13951;SDS011;39535;52.192;9.886;2023-11-18T08:02:34;43.93;;;24.60;;
13951;SDS011;39535;52.192;9.886;2023-11-18T08:05:01;33.13;;;20.97;;
13951;SDS011;39535;52.192;9.886;2023-11-18T08:07:32;40.33;;;23.27;;
13951;SDS011;39535;52.192;9.886;2023-11-18T08:10:00;36.37;;;23.37;;
13951;SDS011;39535;52.192;9.886;2023-11-18T08:12:28;44.63;;;25.70;;
13951;SDS011;39535;52.192;9.886;2023-11-18T08:14:55;38.27;;;22.83;;
13951;SDS011;39535;52.192;9.886;2023-11-18T08:17:22;36.43;;;22.87;;
13951;SDS011;39535;52.192;9.886;2023-11-18T08:19:50;38.43;;;22.40;;
13951;SDS011;39535;52.192;9.886;2023-11-18T08:22:16;45.37;;;24.27;;
13951;SDS011;39535;52.192;9.886;2023-11-18T08:24:43;37.87;;;23.77;;
13951;SDS011;39535;52.192;9.886;2023-11-18T08:27:11;41.63;;;23.43;;
13951;SDS011;39535;52.192;9.886;2023-11-18T08:29:38;40.27;;;22.63;;
13951;SDS011;39535;52.192;9.886;2023-11-18T08:32:05;36.33;;;22.23;;
13951;SDS011;39535;52.192;9.886;2023-11-18T08:34:34;38.93;;;23.03;;
13951;SDS011;39535;52.192;9.886;2023-11-18T08:37:02;38.73;;;22.70;;
13951;SDS011;39535;52.192;9.886;2023-11-18T08:39:29;41.07;;;23.93;;
13951;SDS011;39535;52.192;9.886;2023-11-18T08:41:55;37.47;;;21.50;;
13951;SDS011;39535;52.192;9.886;2023-11-18T08:44:23;33.27;;;21.33;;
13951;SDS011;39535;52.192;9.886;2023-11-18T08:46:50;35.07;;;23.70;;
13951;SDS011;39535;52.192;9.886;2023-11-18T08:49:18;42.63;;;25.30;;
13951;SDS011;39535;52.192;9.886;2023-11-18T08:51:46;35.53;;;21.77;;
13951;SDS011;39535;52.192;9.886;2023-11-18T08:54:15;35.20;;;23.67;;
13951;SDS011;39535;52.192;9.886;2023-11-18T08:56:50;39.20;;;23.07;;
13951;SDS011;39535;52.192;9.886;2023-11-18T08:59:17;42.37;;;23.03;;
13951;SDS011;39535;52.192;9.886;2023-11-18T09:01:48;39.77;;;22.50;;
13951;SDS011;39535;52.192;9.886;2023-11-18T09:04:15;39.17;;;23.23;;
13951;SDS011;39535;52.192;9.886;2023-11-18T09:06:44;34.17;;;22.00;;
13951;SDS011;39535;52.192;9.886;2023-11-18T09:09:11;36.60;;;22.17;;
13951;SDS011;39535;52.192;9.886;2023-11-18T09:11:40;37.03;;;22.60;;
13951;SDS011;39535;52.192;9.886;2023-11-18T09:14:07;31.40;;;20.40;;
13951;SDS011;39535;52.192;9.886;2023-11-18T09:16:34;35.47;;;22.10;;
13951;SDS011;39535;52.192;9.886;2023-11-18T09:19:05;39.83;;;21.83;;
13951;SDS011;39535;52.192;9.886;2023-11-18T09:21:32;36.37;;;21.23;;
13951;SDS011;39535;52.192;9.886;2023-11-18T09:24:00;29.43;;;18.60;;
13951;SDS011;39535;52.192;9.886;2023-11-18T09:26:29;32.90;;;19.87;;
13951;SDS011;39535;52.192;9.886;2023-11-18T09:28:56;30.13;;;18.23;;
13951;SDS011;39535;52.192;9.886;2023-11-18T09:31:23;25.07;;;17.80;;
13951;SDS011;39535;52.192;9.886;2023-11-18T09:33:50;24.00;;;17.87;;
13951;SDS011;39535;52.192;9.886;2023-11-18T09:36:19;24.83;;;17.30;;
13951;SDS011;39535;52.192;9.886;2023-11-18T09:38:47;19.97;;;15.63;;
13951;SDS011;39535;52.192;9.886;2023-11-18T09:41:14;20.87;;;14.70;;
13951;SDS011;39535;52.192;9.886;2023-11-18T09:43:42;19.53;;;14.87;;
13951;SDS011;39535;52.192;9.886;2023-11-18T09:46:10;20.60;;;14.23;;
13951;SDS011;39535;52.192;9.886;2023-11-18T09:48:40;14.40;;;12.90;;
13951;SDS011;39535;52.192;9.886;2023-11-18T09:51:10;21.00;;;13.57;;
13951;SDS011;39535;52.192;9.886;2023-11-18T09:53:43;13.00;;;11.60;;
13951;SDS011;39535;52.192;9.886;2023-11-18T09:56:13;15.47;;;12.13;;
13951;SDS011;39535;52.192;9.886;2023-11-18T09:58:54;12.57;;;11.27;;
13951;SDS011;39535;52.192;9.886;2023-11-18T10:01:28;12.87;;;11.60;;
13951;SDS011;39535;52.192;9.886;2023-11-18T10:03:58;16.37;;;10.60;;
13951;SDS011;39535;52.192;9.886;2023-11-18T10:06:31;14.17;;;9.83;;
13951;SDS011;39535;52.192;9.886;2023-11-18T10:09:02;10.10;;;8.87;;
13951;SDS011;39535;52.192;9.886;2023-11-18T10:11:40;8.93;;;7.40;;
13951;SDS011;39535;52.192;9.886;2023-11-18T10:14:08;8.33;;;7.53;;
13951;SDS011;39535;52.192;9.886;2023-11-18T10:16:35;7.60;;;6.90;;
13951;SDS011;39535;52.192;9.886;2023-11-18T10:19:03;7.83;;;7.13;;
13951;SDS011;39535;52.192;9.886;2023-11-18T10:21:34;7.47;;;6.77;;
13951;SDS011;39535;52.192;9.886;2023-11-18T10:24:06;7.33;;;6.53;;
13951;SDS011;39535;52.192;9.886;2023-11-18T10:26:39;7.00;;;6.30;;
13951;SDS011;39535;52.192;9.886;2023-11-18T10:29:06;6.70;;;6.00;;
13951;SDS011;39535;52.192;9.886;2023-11-18T10:31:35;10.60;;;6.70;;
13951;SDS011;39535;52.192;9.886;2023-11-18T10:34:02;8.03;;;6.63;;
13951;SDS011;39535;52.192;9.886;2023-11-18T10:36:30;8.10;;;5.60;;
13951;SDS011;39535;52.192;9.886;2023-11-18T10:38:58;5.97;;;5.30;;
13951;SDS011;39535;52.192;9.886;2023-11-18T10:41:40;8.30;;;7.03;;
13951;SDS011;39535;52.192;9.886;2023-11-18T10:44:08;9.27;;;7.43;;
13951;SDS011;39535;52.192;9.886;2023-11-18T10:46:39;8.03;;;7.23;;
13951;SDS011;39535;52.192;9.886;2023-11-18T10:49:06;7.47;;;6.13;;
13951;SDS011;39535;52.192;9.886;2023-11-18T10:51:35;8.87;;;6.30;;
13951;SDS011;39535;52.192;9.886;2023-11-18T10:54:04;6.80;;;6.10;;
13951;SDS011;39535;52.192;9.886;2023-11-18T10:56:39;6.10;;;5.50;;
13951;SDS011;39535;52.192;9.886;2023-11-18T10:59:14;6.97;;;5.53;;
13951;SDS011;39535;52.192;9.886;2023-11-18T11:01:41;7.30;;;5.90;;
13951;SDS011;39535;52.192;9.886;2023-11-18T11:04:10;8.23;;;5.93;;
13951;SDS011;39535;52.192;9.886;2023-11-18T11:06:40;8.20;;;5.90;;
13951;SDS011;39535;52.192;9.886;2023-11-18T11:09:08;7.47;;;6.43;;
13951;SDS011;39535;52.192;9.886;2023-11-18T11:11:43;6.67;;;6.07;;
13951;SDS011;39535;52.192;9.886;2023-11-18T11:14:16;7.93;;;5.20;;
13951;SDS011;39535;52.192;9.886;2023-11-18T11:16:47;5.63;;;4.97;;
13951;SDS011;39535;52.192;9.886;2023-11-18T11:19:20;6.00;;;5.50;;
13951;SDS011;39535;52.192;9.886;2023-11-18T11:21:52;7.40;;;5.63;;
13951;SDS011;39535;52.192;9.886;2023-11-18T11:24:28;5.80;;;5.30;;
13951;SDS011;39535;52.192;9.886;2023-11-18T11:27:12;5.63;;;5.03;;
13951;SDS011;39535;52.192;9.886;2023-11-18T11:29:54;5.60;;;4.97;;
13951;SDS011;39535;52.192;9.886;2023-11-18T11:32:26;5.90;;;5.33;;
13951;SDS011;39535;52.192;9.886;2023-11-18T11:35:03;6.20;;;5.60;;
13951;SDS011;39535;52.192;9.886;2023-11-18T11:37:42;6.03;;;5.43;;
13951;SDS011;39535;52.192;9.886;2023-11-18T11:40:10;7.80;;;6.30;;
13951;SDS011;39535;52.192;9.886;2023-11-18T11:42:43;6.23;;;5.30;;
13951;SDS011;39535;52.192;9.886;2023-11-18T11:45:10;5.87;;;5.03;;
13951;SDS011;39535;52.192;9.886;2023-11-18T11:47:45;5.90;;;5.40;;
13951;SDS011;39535;52.192;9.886;2023-11-18T11:50:15;5.57;;;5.10;;
13951;SDS011;39535;52.192;9.886;2023-11-18T11:52:56;5.57;;;5.07;;
13951;SDS011;39535;52.192;9.886;2023-11-18T11:55:33;6.50;;;5.13;;
13951;SDS011;39535;52.192;9.886;2023-11-18T11:58:05;5.90;;;5.33;;
13951;SDS011;39535;52.192;9.886;2023-11-18T12:00:52;5.40;;;4.90;;
13951;SDS011;39535;52.192;9.886;2023-11-18T12:03:19;6.73;;;5.87;;
13951;SDS011;39535;52.192;9.886;2023-11-18T12:05:48;6.17;;;5.57;;
13951;SDS011;39535;52.192;9.886;2023-11-18T12:08:16;5.90;;;5.30;;
13951;SDS011;39535;52.192;9.886;2023-11-18T12:10:50;6.07;;;5.47;;
13951;SDS011;39535;52.192;9.886;2023-11-18T12:13:19;5.97;;;5.43;;
13951;SDS011;39535;52.192;9.886;2023-11-18T12:15:49;6.90;;;6.17;;
13951;SDS011;39535;52.192;9.886;2023-11-18T12:18:22;6.70;;;6.07;;
13951;SDS011;39535;52.192;9.886;2023-11-18T12:20:49;7.93;;;5.73;;
13951;SDS011;39535;52.192;9.886;2023-11-18T12:23:19;7.83;;;6.10;;
13951;SDS011;39535;52.192;9.886;2023-11-18T12:25:48;7.90;;;6.23;;
13951;SDS011;39535;52.192;9.886;2023-11-18T12:28:21;6.63;;;6.03;;
13951;SDS011;39535;52.192;9.886;2023-11-18T12:30:53;5.87;;;5.37;;
13951;SDS011;39535;52.192;9.886;2023-11-18T12:33:25;5.57;;;5.03;;
13951;SDS011;39535;52.192;9.886;2023-11-18T12:36:22;6.87;;;5.63;;
13951;SDS011;39535;52.192;9.886;2023-11-18T12:39:32;5.93;;;5.43;;
13951;SDS011;39535;52.192;9.886;2023-11-18T12:42:30;5.70;;;5.20;;
13951;SDS011;39535;52.192;9.886;2023-11-18T12:48:40;5.90;;;5.30;;
13951;SDS011;39535;52.192;9.886;2023-11-18T12:51:11;5.30;;;4.83;;
13951;SDS011;39535;52.192;9.886;2023-11-18T12:53:44;5.90;;;5.40;;
13951;SDS011;39535;52.192;9.886;2023-11-18T12:56:14;5.50;;;4.97;;
13951;SDS011;39535;52.192;9.886;2023-11-18T12:58:41;5.33;;;4.83;;
13951;SDS011;39535;52.192;9.886;2023-11-18T13:01:10;8.63;;;5.00;;
13951;SDS011;39535;52.192;9.886;2023-11-18T13:03:39;5.60;;;5.17;;
13951;SDS011;39535;52.192;9.886;2023-11-18T13:06:07;5.70;;;5.20;;
13951;SDS011;39535;52.192;9.886;2023-11-18T13:08:34;5.77;;;5.17;;
13951;SDS011;39535;52.192;9.886;2023-11-18T13:11:01;5.53;;;4.73;;
13951;SDS011;39535;52.192;9.886;2023-11-18T13:13:29;5.27;;;4.83;;
13951;SDS011;39535;52.192;9.886;2023-11-18T13:15:56;5.67;;;5.07;;
13951;SDS011;39535;52.192;9.886;2023-11-18T13:18:25;5.20;;;4.83;;
13951;SDS011;39535;52.192;9.886;2023-11-18T13:20:55;6.97;;;4.67;;
13951;SDS011;39535;52.192;9.886;2023-11-18T13:23:24;6.33;;;5.73;;
13951;SDS011;39535;52.192;9.886;2023-11-18T13:25:53;6.40;;;5.30;;
13951;SDS011;39535;52.192;9.886;2023-11-18T13:28:22;5.70;;;4.90;;
13951;SDS011;39535;52.192;9.886;2023-11-18T13:30:48;5.77;;;5.13;;
13951;SDS011;39535;52.192;9.886;2023-11-18T13:33:15;5.47;;;4.97;;
13951;SDS011;39535;52.192;9.886;2023-11-18T13:35:44;5.60;;;5.10;;
13951;SDS011;39535;52.192;9.886;2023-11-18T13:38:11;5.93;;;5.33;;
13951;SDS011;39535;52.192;9.886;2023-11-18T13:40:42;5.57;;;5.07;;
13951;SDS011;39535;52.192;9.886;2023-11-18T13:43:09;4.77;;;4.40;;
13951;SDS011;39535;52.192;9.886;2023-11-18T13:45:36;5.93;;;5.33;;
13951;SDS011;39535;52.192;9.886;2023-11-18T13:48:04;5.40;;;4.87;;
13951;SDS011;39535;52.192;9.886;2023-11-18T13:50:33;5.40;;;4.90;;
13951;SDS011;39535;52.192;9.886;2023-11-18T13:53:01;5.70;;;5.20;;
13951;SDS011;39535;52.192;9.886;2023-11-18T13:55:28;4.90;;;4.50;;
13951;SDS011;39535;52.192;9.886;2023-11-18T13:57:57;5.33;;;4.93;;
13951;SDS011;39535;52.192;9.886;2023-11-18T14:00:24;5.97;;;5.30;;
13951;SDS011;39535;52.192;9.886;2023-11-18T14:02:53;5.23;;;4.73;;
13951;SDS011;39535;52.192;9.886;2023-11-18T14:05:21;5.77;;;5.17;;
13951;SDS011;39535;52.192;9.886;2023-11-18T14:07:49;5.13;;;4.73;;
13951;SDS011;39535;52.192;9.886;2023-11-18T14:10:17;5.00;;;4.60;;
13951;SDS011;39535;52.192;9.886;2023-11-18T14:13:00;6.20;;;5.00;;
13951;SDS011;39535;52.192;9.886;2023-11-18T14:15:28;5.97;;;5.47;;
13951;SDS011;39535;52.192;9.886;2023-11-18T14:17:55;5.37;;;4.87;;
13951;SDS011;39535;52.192;9.886;2023-11-18T14:20:22;5.67;;;5.17;;
13951;SDS011;39535;52.192;9.886;2023-11-18T14:22:49;6.50;;;5.90;;
13951;SDS011;39535;52.192;9.886;2023-11-18T14:25:18;6.07;;;5.47;;
13951;SDS011;39535;52.192;9.886;2023-11-18T14:27:44;6.57;;;5.93;;
13951;SDS011;39535;52.192;9.886;2023-11-18T14:30:13;12.20;;;8.00;;
13951;SDS011;39535;52.192;9.886;2023-11-18T14:32:41;7.40;;;6.60;;
13951;SDS011;39535;52.192;9.886;2023-11-18T14:35:07;6.20;;;5.70;;
13951;SDS011;39535;52.192;9.886;2023-11-18T14:37:37;5.40;;;5.00;;
13951;SDS011;39535;52.192;9.886;2023-11-18T14:40:07;7.63;;;5.27;;